Time;durP1;ratioP1;P1;durP2;ratioP2;P2;SDS_P1;SDS_P2;PMS_P1;PMS_P2;Temp;Humidity;BMP_temperature;BMP_pressure;BME280_temperature;BME280_humidity;BME280_pressure;Samples;Min_cycle;Max_cycle;Signal;HPM_P1;HPM_P2
2023/04/09 00:00:30;;;;;;;28.55;7.43;;;;;;;7.93;74.51;101888.59;2081870;28;20280;-82
2023/04/09 00:01:35;;;;;;;29.67;7.50;;;;;;;7.94;74.58;101884.88;2065211;28;20324;-82
2023/04/09 00:02:40;;;;;;;29.65;7.97;;;;;;;7.94;74.70;101884.88;2057874;28;20302;-81
2023/04/09 00:03:45;;;;;;;25.08;7.60;;;;;;;7.94;74.74;101881.38;2057232;28;20290;-82
2023/04/09 00:04:49;;;;;;;21.98;6.75;;;;;;;7.92;74.63;101880.81;2065250;28;20289;-82
2023/04/09 00:05:53;;;;;;;25.20;7.78;;;;;;;7.92;74.49;101884.31;2064884;28;20308;-82
2023/04/09 00:06:57;;;;;;;21.40;6.63;;;;;;;7.92;74.59;101883.50;2066127;28;20293;-82
2023/04/09 00:08:02;;;;;;;23.85;7.43;;;;;;;7.90;74.42;101879.16;2072948;28;20300;-82
2023/04/09 00:09:05;;;;;;;29.42;7.45;;;;;;;7.90;74.39;101881.03;2056389;28;20298;-82
2023/04/09 00:10:12;;;;;;;25.50;7.65;;;;;;;7.87;74.47;101879.59;2057188;28;20298;-81
2023/04/09 00:11:16;;;;;;;21.52;7.30;;;;;;;7.87;74.63;101889.50;2057359;28;20375;-82
2023/04/09 00:12:22;;;;;;;27.88;8.60;;;;;;;7.84;74.80;101884.59;2057788;28;20289;-81
2023/04/09 00:13:24;;;;;;;27.33;8.07;;;;;;;7.85;74.85;101880.91;2073341;28;20315;-82
2023/04/09 00:14:28;;;;;;;26.23;7.93;;;;;;;7.86;74.60;101880.66;2064674;28;20301;-81
2023/04/09 00:15:38;;;;;;;20.98;7.00;;;;;;;7.86;74.76;101882.53;2064486;28;20332;-81
2023/04/09 00:16:46;;;;;;;26.45;7.28;;;;;;;7.85;74.56;101886.25;2081273;28;20291;-81
2023/04/09 00:17:51;;;;;;;25.20;8.40;;;;;;;7.86;74.43;101887.88;2064221;28;20888;-81
2023/04/09 00:18:53;;;;;;;30.85;8.13;;;;;;;7.79;74.88;101882.63;2057208;28;20693;-81
2023/04/09 00:19:57;;;;;;;25.95;8.02;;;;;;;7.77;75.15;101879.34;2057372;28;20293;-81
2023/04/09 00:20:59;;;;;;;33.97;8.50;;;;;;;7.77;75.00;101883.88;2067041;28;20769;-82
2023/04/09 00:22:04;;;;;;;29.42;7.75;;;;;;;7.81;74.76;101883.19;2058349;28;20289;-82
2023/04/09 00:23:08;;;;;;;22.25;7.43;;;;;;;7.83;75.00;101882.97;2060383;28;20301;-82
2023/04/09 00:24:14;;;;;;;29.58;8.48;;;;;;;7.82;75.40;101876.00;2058716;28;20315;-82
2023/04/09 00:25:19;;;;;;;34.55;9.00;;;;;;;7.84;75.15;101876.56;2052870;28;20310;-82
2023/04/09 00:26:27;;;;;;;33.58;9.35;;;;;;;7.80;75.56;101873.53;2060085;28;20286;-82
2023/04/09 00:27:32;;;;;;;32.40;8.75;;;;;;;7.83;75.00;101874.94;2066324;28;20801;-81
2023/04/09 00:28:35;;;;;;;31.80;8.70;;;;;;;7.82;75.55;101876.00;2050549;28;20298;-80
2023/04/09 00:29:37;;;;;;;33.00;9.02;;;;;;;7.84;75.11;101873.91;2050229;28;20296;-80
2023/04/09 00:30:43;;;;;;;30.13;8.27;;;;;;;7.82;75.25;101876.00;2066765;28;20292;-80
2023/04/09 00:31:46;;;;;;;30.85;8.85;;;;;;;7.81;75.40;101874.34;2066394;28;20662;-81
2023/04/09 00:32:51;;;;;;;26.88;8.80;;;;;;;7.82;75.21;101876.00;2058786;28;20286;-81
2023/04/09 00:34:00;;;;;;;28.63;8.63;;;;;;;7.82;75.40;101881.38;2059295;28;20293;-81
2023/04/09 00:35:02;;;;;;;24.67;8.30;;;;;;;7.81;75.38;101871.69;2058644;28;20298;-81
2023/04/09 00:36:08;;;;;;;31.60;8.25;;;;;;;7.83;75.13;101877.63;2057256;28;20669;-81
2023/04/09 00:37:13;;;;;;;29.90;8.50;;;;;;;7.81;75.19;101877.84;2059767;28;20297;-81
2023/04/09 00:38:18;;;;;;;31.60;8.52;;;;;;;7.78;75.56;101875.63;2066835;28;20328;-81
2023/04/09 00:39:22;;;;;;;27.42;8.15;;;;;;;7.80;75.30;101878.09;2059263;28;20674;-81
2023/04/09 00:40:25;;;;;;;24.92;8.15;;;;;;;7.80;75.19;101875.41;2059024;28;20300;-80
2023/04/09 00:41:27;;;;;;;26.10;7.65;;;;;;;7.79;75.32;101871.09;2050801;28;20302;-81
2023/04/09 00:42:34;;;;;;;34.20;8.27;;;;;;;7.76;75.32;101866.19;2051584;28;20298;-80
2023/04/09 00:43:41;;;;;;;37.30;8.23;;;;;;;7.79;75.31;101871.91;2059267;28;20285;-80
2023/04/09 00:44:50;;;;;;;30.83;8.20;;;;;;;7.81;75.61;101877.03;2060243;28;20298;-81
2023/04/09 00:45:55;;;;;;;27.58;7.88;;;;;;;7.81;75.46;101879.72;2060021;28;20294;-80
2023/04/09 00:46:59;;;;;;;31.30;8.07;;;;;;;7.78;74.76;101859.56;2066831;28;20042;-79
2023/04/09 00:48:05;;;;;;;21.63;7.85;;;;;;;7.80;75.16;101867.38;2066823;28;20349;-79
2023/04/09 00:49:07;;;;;;;24.02;7.10;;;;;;;7.79;74.99;101869.25;2066099;28;20289;-80
2023/04/09 00:50:15;;;;;;;20.80;7.38;;;;;;;7.79;75.25;101869.25;2075022;28;20345;-81
2023/04/09 00:51:22;;;;;;;18.60;6.75;;;;;;;7.79;74.95;101868.44;2058400;28;20765;-81
2023/04/09 00:52:30;;;;;;;23.38;7.35;;;;;;;7.81;74.84;101869.00;2053056;28;20659;-81
2023/04/09 00:53:34;;;;;;;15.48;6.15;;;;;;;7.82;74.61;101867.97;2059046;28;20290;-81
2023/04/09 00:54:40;;;;;;;20.08;6.50;;;;;;;7.83;74.82;101861.56;2067305;28;20281;-80
2023/04/09 00:55:44;;;;;;;20.45;6.53;;;;;;;7.81;74.97;101864.44;2073976;28;20281;-81
2023/04/09 00:56:50;;;;;;;15.23;6.68;;;;;;;7.84;74.55;101868.53;2058829;28;21058;-81
2023/04/09 00:57:56;;;;;;;17.80;6.10;;;;;;;7.77;75.06;101862.47;2068416;28;20290;-81
2023/04/09 00:58:59;;;;;;;15.20;6.35;;;;;;;7.84;74.63;101868.53;2066204;28;20042;-81
2023/04/09 01:00:03;;;;;;;15.73;6.57;;;;;;;7.84;74.65;101864.00;2058502;28;20286;-81
2023/04/09 01:01:06;;;;;;;15.73;5.93;;;;;;;7.84;74.31;101868.53;2057961;28;20774;-81
2023/04/09 01:02:09;;;;;;;14.07;6.55;;;;;;;7.73;74.19;101845.25;2050734;28;20663;-81
2023/04/09 01:03:16;;;;;;;16.20;6.38;;;;;;;7.81;74.10;101864.44;2042704;28;20350;-81
2023/04/09 01:04:23;;;;;;;19.73;6.22;;;;;;;7.81;74.17;101858.28;2044340;28;20306;-81
2023/04/09 01:05:35;;;;;;;14.90;6.63;;;;;;;7.77;74.46;101852.56;2043682;28;20298;-80
2023/04/09 01:06:47;;;;;;;19.77;7.13;;;;;;;7.80;74.10;101856.66;2046098;28;21023;-80
2023/04/09 01:08:18;;;;;;;15.15;6.55;;;;;;;7.78;74.02;101858.75;2053138;28;20306;-81
2023/04/09 01:09:34;;;;;;;16.40;6.30;;;;;;;7.77;74.16;101859.78;2061499;28;20676;-81
2023/04/09 01:10:42;;;;;;;18.33;7.03;;;;;;;7.79;73.96;101860.41;2060072;28;20290;-80
2023/04/09 01:12:13;;;;;;;14.05;6.35;;;;;;;7.79;74.09;101861.22;2059424;28;20313;-80
2023/04/09 01:13:46;;;;;;;15.63;6.45;;;;;;;7.79;73.76;101855.03;2063004;28;20634;-80
2023/04/09 01:15:04;;;;;;;16.73;6.50;;;;;;;7.79;74.15;101855.84;2054005;28;20285;-80
2023/04/09 01:16:09;;;;;;;13.52;6.55;;;;;;;7.78;73.76;101858.75;2063328;28;20293;-80
2023/04/09 01:17:22;;;;;;;14.48;6.15;;;;;;;7.80;74.06;101862.03;2065391;28;20046;-81
2023/04/09 01:18:34;;;;;;;11.20;5.65;;;;;;;7.78;73.91;101864.09;2051950;28;20325;-82
2023/04/09 01:19:57;;;;;;;17.27;6.50;;;;;;;7.78;73.70;101858.75;2052067;28;20336;-81
2023/04/09 01:21:16;;;;;;;15.48;6.38;;;;;;;7.76;73.67;101866.19;2048986;28;20301;-80
2023/04/09 01:22:42;;;;;;;15.68;6.10;;;;;;;7.80;73.91;101862.03;2046586;28;20299;-81
2023/04/09 01:23:59;;;;;;;17.23;6.32;;;;;;;7.79;73.83;101857.72;2056985;28;20281;-81
2023/04/09 01:25:16;;;;;;;20.13;7.07;;;;;;;7.78;73.77;101861.41;2061125;28;20284;-81
2023/04/09 01:26:47;;;;;;;17.80;6.50;;;;;;;7.77;73.68;101860.59;2057555;28;20290;-79
2023/04/09 01:28:26;;;;;;;15.18;6.82;;;;;;;7.78;73.76;101859.56;2048770;28;20043;-80
2023/04/09 01:29:47;;;;;;;15.70;6.50;;;;;;;7.79;73.84;101865.75;2061858;28;20706;-81
2023/04/09 01:31:04;;;;;;;12.77;6.80;;;;;;;7.78;73.64;101864.09;2051823;28;20290;-80
2023/04/09 01:32:07;;;;;;;16.23;6.55;;;;;;;7.77;73.54;101851.75;2054504;28;20298;-80
2023/04/09 01:33:19;;;;;;;16.35;6.20;;;;;;;7.79;73.75;101865.75;2058426;28;20286;-79
2023/04/09 01:34:29;;;;;;;15.35;6.70;;;;;;;7.77;73.34;101859.78;2051343;28;20302;-80
2023/04/09 01:35:35;;;;;;;16.05;6.20;;;;;;;7.77;72.98;101865.16;2044179;28;20633;-80
2023/04/09 01:36:47;;;;;;;15.20;6.43;;;;;;;7.77;73.56;101865.16;2051792;28;20363;-80
2023/04/09 01:37:59;;;;;;;11.73;6.40;;;;;;;7.80;73.24;101862.03;2059927;28;20039;-79
2023/04/09 01:39:02;;;;;;;15.07;6.72;;;;;;;7.78;73.63;101861.41;2050617;28;20293;-79
2023/04/09 01:40:11;;;;;;;17.40;6.35;;;;;;;7.80;73.73;101862.81;2042649;28;20283;-79
2023/04/09 01:41:17;;;;;;;15.35;6.70;;;;;;;7.78;73.43;101864.09;2051768;28;20294;-79
2023/04/09 01:42:26;;;;;;;13.75;6.03;;;;;;;7.79;73.50;101865.75;2042397;29;20517;-79
2023/04/09 01:43:33;;;;;;;16.70;6.53;;;;;;;7.76;73.34;101856.31;2046770;28;20738;-79
2023/04/09 01:44:39;;;;;;;13.82;6.72;;;;;;;7.80;73.16;101865.50;2049967;29;20783;-79
2023/04/09 01:45:46;;;;;;;15.80;6.18;;;;;;;7.81;73.56;101863.63;2044731;28;20290;-79
2023/04/09 01:46:51;;;;;;;16.42;6.68;;;;;;;7.80;73.15;101860.16;2057584;28;20286;-79
2023/04/09 01:48:01;;;;;;;12.57;6.70;;;;;;;7.80;73.24;101862.03;2051283;28;20290;-79
2023/04/09 01:49:09;;;;;;;17.17;6.97;;;;;;;7.79;73.26;101866.56;2044908;28;20287;-80
2023/04/09 01:50:11;;;;;;;18.30;6.22;;;;;;;7.79;73.17;101871.91;2057823;28;20296;-79
2023/04/09 01:51:14;;;;;;;17.27;6.32;;;;;;;7.81;73.26;101863.63;2049527;29;20287;-79
2023/04/09 01:52:24;;;;;;;18.33;6.50;;;;;;;7.83;73.24;101858.88;2035334;29;20280;-78
2023/04/09 01:53:27;;;;;;;14.18;6.72;;;;;;;7.84;73.08;101860.50;2045624;28;20287;-79
2023/04/09 01:54:32;;;;;;;14.52;6.57;;;;;;;7.84;72.82;101863.19;2058137;28;20289;-79
2023/04/09 01:55:38;;;;;;;14.02;6.50;;;;;;;7.82;72.99;101865.28;2042053;29;20385;-79
2023/04/09 01:56:47;;;;;;;16.77;6.47;;;;;;;7.82;72.96;101865.28;2029320;29;20296;-79
2023/04/09 01:57:57;;;;;;;16.10;7.05;;;;;;;7.80;73.05;101856.66;2045404;28;20280;-79
2023/04/09 01:59:01;;;;;;;13.60;6.53;;;;;;;7.81;72.89;101864.44;2058501;28;20058;-79
2023/04/09 02:00:08;;;;;;;18.00;6.80;;;;;;;7.80;72.79;101853.97;2050602;28;20290;-79
2023/04/09 02:01:31;;;;;;;13.65;6.22;;;;;;;7.81;73.03;101860.97;2067684;28;20789;-79
2023/04/09 02:02:41;;;;;;;12.40;6.38;;;;;;;7.80;72.72;101859.34;2059420;28;20685;-78
2023/04/09 02:03:47;;;;;;;16.98;6.25;;;;;;;7.81;72.93;101860.97;2060400;28;20298;-79
2023/04/09 02:04:57;;;;;;;17.77;6.45;;;;;;;7.80;72.85;101862.81;2058444;28;20324;-78
2023/04/09 02:06:04;;;;;;;18.80;7.00;;;;;;;7.80;72.87;101853.97;2043335;28;20344;-79
2023/04/09 02:07:18;;;;;;;15.27;6.65;;;;;;;7.80;72.66;101860.16;2052419;28;20298;-80
2023/04/09 02:08:23;;;;;;;18.55;7.00;;;;;;;7.79;72.73;101861.22;2051030;28;20299;-81
2023/04/09 02:09:32;;;;;;;17.48;6.50;;;;;;;7.79;72.67;101855.84;2060190;28;20774;-80
2023/04/09 02:10:37;;;;;;;14.63;6.65;;;;;;;7.81;72.69;101866.31;2073784;28;20289;-79
2023/04/09 02:11:47;;;;;;;11.48;6.22;;;;;;;7.80;72.50;101862.03;2066097;28;20362;-81
2023/04/09 02:12:54;;;;;;;20.35;7.22;;;;;;;7.79;72.51;101860.41;2059051;28;20836;-80
2023/04/09 02:13:57;;;;;;;15.75;6.57;;;;;;;7.80;72.59;101864.69;2051581;28;20279;-81
2023/04/09 02:15:03;;;;;;;19.02;6.47;;;;;;;7.80;72.70;101859.34;2051121;28;20294;-81
2023/04/09 02:16:10;;;;;;;16.80;6.97;;;;;;;7.80;72.33;101862.03;2050686;28;20290;-81
2023/04/09 02:17:17;;;;;;;14.63;6.68;;;;;;;7.79;72.61;101855.84;2067538;28;20289;-80
2023/04/09 02:18:21;;;;;;;17.40;6.68;;;;;;;7.79;72.68;101857.72;2073301;28;20308;-80
2023/04/09 02:19:46;;;;;;;14.68;6.82;;;;;;;7.78;72.94;101861.41;2058201;28;20293;-80
2023/04/09 02:20:51;;;;;;;12.60;6.03;;;;;;;7.79;72.63;101855.03;2064504;28;20788;-80
2023/04/09 02:22:03;;;;;;;17.98;6.40;;;;;;;7.80;72.66;101845.94;2065789;28;20300;-80
2023/04/09 02:23:08;;;;;;;14.10;6.43;;;;;;;7.81;72.27;101853.75;2052301;28;20282;-81
2023/04/09 02:24:13;;;;;;;15.25;6.43;;;;;;;7.83;72.31;101861.56;2057748;28;20035;-79
2023/04/09 02:25:18;;;;;;;18.27;6.60;;;;;;;7.82;72.48;101859.94;2058206;28;20301;-79
2023/04/09 02:26:24;;;;;;;17.65;6.35;;;;;;;7.79;72.41;101860.41;2051500;28;20309;-80
2023/04/09 02:27:29;;;;;;;18.75;6.75;;;;;;;7.79;72.39;101860.41;2066342;28;20297;-80
2023/04/09 02:28:36;;;;;;;14.10;5.82;;;;;;;7.78;72.22;101853.38;2057665;28;20282;-80
2023/04/09 02:29:41;;;;;;;17.52;6.35;;;;;;;7.73;72.18;101851.41;2051000;28;20290;-80
2023/04/09 02:30:45;;;;;;;14.95;6.60;;;;;;;7.78;72.00;101858.75;2066111;28;20285;-80
2023/04/09 02:31:52;;;;;;;16.83;6.32;;;;;;;7.76;72.15;101858.16;2073058;28;20292;-80
2023/04/09 02:32:58;;;;;;;15.85;5.72;;;;;;;7.79;71.86;101849.69;2057704;28;20289;-80
2023/04/09 02:34:03;;;;;;;14.35;5.50;;;;;;;7.79;72.21;101855.84;2059164;28;20282;-80
2023/04/09 02:35:07;;;;;;;18.05;6.22;;;;;;;7.80;72.06;101849.44;2057318;28;20290;-80
2023/04/09 02:36:13;;;;;;;13.25;5.82;;;;;;;7.80;72.11;101857.47;2049322;28;20275;-80
2023/04/09 02:37:20;;;;;;;16.77;6.10;;;;;;;7.85;72.05;101848.78;2050656;28;20354;-80
2023/04/09 02:38:27;;;;;;;10.98;5.57;;;;;;;7.85;71.89;101851.44;2051768;28;20287;-80
2023/04/09 02:39:31;;;;;;;15.95;5.88;;;;;;;7.83;71.79;101851.66;2059088;28;20383;-81
2023/04/09 02:40:36;;;;;;;17.33;6.03;;;;;;;7.82;71.99;101849.22;2065710;28;20289;-79
2023/04/09 02:41:38;;;;;;;17.65;6.15;;;;;;;7.80;71.51;101840.59;2058131;28;20290;-80
2023/04/09 02:42:45;;;;;;;14.82;5.88;;;;;;;7.83;71.87;101850.84;2057371;28;20290;-78
2023/04/09 02:43:55;;;;;;;17.95;5.80;;;;;;;7.78;71.72;101845.34;2074038;28;20283;-79
2023/04/09 02:45:00;;;;;;;12.63;5.70;;;;;;;7.82;71.85;101857.25;2067822;28;20285;-81
2023/04/09 02:46:03;;;;;;;10.90;5.13;;;;;;;7.77;71.97;101841.06;2066646;28;20293;-82
2023/04/09 02:47:06;;;;;;;15.60;6.30;;;;;;;7.76;71.80;101847.47;2074218;28;20289;-81
2023/04/09 02:48:15;;;;;;;13.05;5.82;;;;;;;7.72;71.78;101843.59;2074012;28;20284;-82
2023/04/09 02:49:27;;;;;;;12.70;5.43;;;;;;;7.72;71.91;101844.41;2066973;28;20289;-82
2023/04/09 02:50:31;;;;;;;13.57;5.57;;;;;;;7.74;71.80;101841.50;2065366;28;20289;-81
2023/04/09 02:51:38;;;;;;;13.63;5.30;;;;;;;7.73;71.89;101840.69;2057548;28;20053;-81
2023/04/09 02:52:50;;;;;;;15.70;6.10;;;;;;;7.72;71.98;101843.59;2074888;28;20308;-81
2023/04/09 02:53:54;;;;;;;12.07;5.90;;;;;;;7.73;72.04;101842.56;2073447;28;20407;-81
2023/04/09 02:55:00;;;;;;;20.45;5.40;;;;;;;7.77;72.63;101843.72;2058378;28;20294;-81
2023/04/09 02:56:07;;;;;;;15.77;6.13;;;;;;;7.76;71.92;101844.78;2067088;28;20784;-80
2023/04/09 02:57:15;;;;;;;13.15;5.97;;;;;;;7.79;72.10;101838.97;2066470;28;20297;-81
2023/04/09 02:58:22;;;;;;;14.93;5.70;;;;;;;7.78;72.09;101848.84;2065937;28;20300;-79
2023/04/09 02:59:25;;;;;;;15.23;5.57;;;;;;;7.78;71.80;101845.34;2058295;28;20286;-80
2023/04/09 03:00:32;;;;;;;14.45;5.47;;;;;;;7.78;72.02;101848.84;2058242;28;20298;-79
2023/04/09 03:01:42;;;;;;;11.88;5.43;;;;;;;7.74;72.06;101836.97;2066172;28;20297;-79
2023/04/09 03:02:46;;;;;;;18.63;5.93;;;;;;;7.77;71.93;101849.09;2058659;28;20297;-79
2023/04/09 03:03:51;;;;;;;11.77;5.28;;;;;;;7.76;71.65;101842.09;2057181;28;20290;-79
2023/04/09 03:04:55;;;;;;;13.80;5.50;;;;;;;7.77;71.85;101846.41;2058455;28;20294;-80
2023/04/09 03:05:58;;;;;;;18.13;5.20;;;;;;;7.78;71.84;101848.03;2065865;28;20645;-79
2023/04/09 03:07:05;;;;;;;20.67;5.45;;;;;;;7.79;71.69;101849.69;2073514;28;20284;-79
2023/04/09 03:08:13;;;;;;;12.68;5.30;;;;;;;7.80;71.76;101853.97;2081336;28;20322;-81
2023/04/09 03:09:18;;;;;;;15.73;5.75;;;;;;;7.77;71.42;101843.72;2072445;28;20295;-81
2023/04/09 03:10:21;;;;;;;12.73;5.38;;;;;;;7.79;71.52;101853.19;2065959;28;20800;-81
2023/04/09 03:11:28;;;;;;;12.20;5.43;;;;;;;7.78;71.87;101850.72;2065374;28;20300;-81
2023/04/09 03:12:30;;;;;;;13.63;5.55;;;;;;;7.77;71.21;101846.41;2057786;28;20639;-81
2023/04/09 03:13:33;;;;;;;14.90;5.60;;;;;;;7.76;71.72;101850.13;2049604;28;20301;-81
2023/04/09 03:14:36;;;;;;;15.65;5.55;;;;;;;7.75;71.71;101860.00;2057044;28;20305;-82
2023/04/09 03:15:40;;;;;;;11.43;5.40;;;;;;;7.76;71.71;101850.13;2049542;28;20295;-81
2023/04/09 03:16:43;;;;;;;13.70;5.38;;;;;;;7.77;71.51;101851.75;2050129;28;20652;-81
2023/04/09 03:17:48;;;;;;;10.38;4.88;;;;;;;7.73;71.52;101851.41;2065027;28;20293;-81
2023/04/09 03:18:52;;;;;;;16.20;5.47;;;;;;;7.73;71.19;101850.59;2057714;28;20367;-81
2023/04/09 03:19:57;;;;;;;17.85;5.32;;;;;;;7.75;71.47;101859.19;2067188;28;20286;-81
2023/04/09 03:21:08;;;;;;;19.55;5.72;;;;;;;7.72;71.58;101856.97;2072264;28;20285;-81
2023/04/09 03:22:18;;;;;;;14.38;5.15;;;;;;;7.72;71.68;101852.44;2066144;28;20285;-81
2023/04/09 03:23:23;;;;;;;14.43;5.22;;;;;;;7.76;71.33;101853.63;2050000;28;20287;-81
2023/04/09 03:24:27;;;;;;;10.60;4.88;;;;;;;7.74;71.66;101852.22;2050144;28;20309;-82
2023/04/09 03:25:34;;;;;;;15.20;4.80;;;;;;;7.73;71.44;101853.28;2058873;28;20294;-82
2023/04/09 03:26:46;;;;;;;14.98;5.63;;;;;;;7.72;71.15;101855.09;2066421;28;20042;-82
2023/04/09 03:27:55;;;;;;;14.30;5.20;;;;;;;7.72;71.30;101854.28;2065413;28;20297;-82
2023/04/09 03:29:08;;;;;;;13.85;4.85;;;;;;;7.71;71.35;101847.31;2059669;28;20297;-82
2023/04/09 03:30:15;;;;;;;11.52;5.10;;;;;;;7.70;71.50;101853.72;2050026;28;20324;-82
2023/04/09 03:31:27;;;;;;;11.70;4.70;;;;;;;7.68;71.50;101845.09;2058827;28;20294;-81
2023/04/09 03:32:30;;;;;;;12.60;5.13;;;;;;;7.69;71.58;101852.06;2058042;28;20302;-81
2023/04/09 03:33:35;;;;;;;17.17;4.78;;;;;;;7.67;71.51;101855.00;2041885;28;20048;-81
2023/04/09 03:34:38;;;;;;;11.65;4.78;;;;;;;7.67;71.65;101852.31;2058128;28;20278;-81
2023/04/09 03:35:42;;;;;;;12.02;5.15;;;;;;;7.64;71.43;101856.25;2073004;28;20300;-81
2023/04/09 03:36:45;;;;;;;17.45;5.22;;;;;;;7.66;71.79;101856.84;2073222;28;20817;-81
2023/04/09 03:37:55;;;;;;;12.02;5.13;;;;;;;7.65;71.55;101859.75;2066507;28;20637;-81
2023/04/09 03:39:06;;;;;;;14.68;4.78;;;;;;;7.62;71.59;101861.00;2082069;28;20046;-82
2023/04/09 03:40:17;;;;;;;14.57;5.55;;;;;;;7.61;71.51;101853.22;2079833;28;20299;-82
2023/04/09 03:41:21;;;;;;;14.60;5.32;;;;;;;7.59;71.48;101861.47;2072908;28;20756;-82
2023/04/09 03:42:24;;;;;;;8.80;4.60;;;;;;;7.59;71.81;101861.47;2057420;28;20317;-80
2023/04/09 03:43:27;;;;;;;12.75;5.25;;;;;;;7.59;71.51;101863.31;2049398;28;20295;-80
2023/04/09 03:44:32;;;;;;;14.50;5.28;;;;;;;7.55;71.54;101864.81;2049866;28;20303;-80
2023/04/09 03:45:45;;;;;;;12.35;5.03;;;;;;;7.51;72.05;101861.78;2060415;28;20286;-80
2023/04/09 03:47:02;;;;;;;11.15;4.53;;;;;;;7.49;71.76;101857.69;2058904;28;20293;-80
2023/04/09 03:48:08;;;;;;;12.70;4.93;;;;;;;7.46;71.64;101858.97;2059069;28;20282;-80
2023/04/09 03:49:13;;;;;;;10.82;4.85;;;;;;;7.44;71.68;101863.75;2057922;28;20302;-80
2023/04/09 03:50:21;;;;;;;11.45;4.82;;;;;;;7.42;71.74;101866.63;2072684;28;20281;-79
2023/04/09 03:51:35;;;;;;;12.88;4.72;;;;;;;7.38;71.71;101860.09;2074952;28;20739;-81
2023/04/09 03:52:43;;;;;;;10.40;5.07;;;;;;;7.35;71.95;101865.91;2072565;28;20292;-81
2023/04/09 03:53:46;;;;;;;11.75;4.88;;;;;;;7.36;71.81;101866.72;2057921;28;20043;-81
2023/04/09 03:54:51;;;;;;;11.98;5.13;;;;;;;7.36;72.08;101867.53;2057297;28;20584;-81
2023/04/09 03:56:00;;;;;;;16.10;5.18;;;;;;;7.34;71.93;101863.44;2050807;28;20286;-80
2023/04/09 03:57:05;;;;;;;19.77;5.55;;;;;;;7.30;71.94;101862.25;2067035;28;20296;-80
2023/04/09 03:58:13;;;;;;;15.65;5.30;;;;;;;7.26;72.12;101855.72;2074968;28;20293;-81
2023/04/09 03:59:17;;;;;;;14.35;5.45;;;;;;;7.25;72.12;101860.28;2072497;28;20825;-81
2023/04/09 04:00:22;;;;;;;11.57;4.85;;;;;;;7.22;72.32;101854.53;2072939;28;20277;-81
